Virtual Norwegian is not affiliated with Norwegian Air Shuttle in any way.
If you are looking for the real "Norwegian", or you wish to book Norwegian flights, please visit Norwegian.com


We use cookies to ensure you get the best experience on our website.   ACCEPT

EKCH - CPH - Copenhagen (Kastrup)

General Info Alternate Airport
ICAO: EKCH Elevation: 17 ft ICAO: ESMS
IATA: CPH Country: Denmark IATA: MMX
City: Copenhagen Charts: Log in to view charts City: Malmoe
Name: Kastrup Hub: Yes Name Sturup
General Info
ICAO: EKCH
IATA: CPH
City: Copenhagen
Name: Kastrup
Elevation: 17 ft
Country: Denmark
Charts: Log in to view charts
Hub: Yes
 
Alternate Airport
ICAO: ESMS
IATA: MMX
City: Malmoe
Name: Sturup

Weather
231450Z 08014KT 9999 FEW014 BKN017 10/08 Q1018 TEMPO BKN012
Weather
231450Z 08014KT 9999 FEW014 BKN017 10/08 Q1018 TEMPO BKN012

Runway Info
04L
Length ILS/LOC Course
3000 m 110.50 038
04R
Length ILS/LOC Course
3300 m 109.30 038
12
Length ILS/LOC Course
2365 m 109.90 120
22L
Length ILS/LOC Course
3300 m 109.50 218
22R
Length ILS/LOC Course
3000 m 110.90 218
30
Length ILS/LOC Course
2365 m 108.90 300

NOTAMs
NOTAMs currently unavailable.
NOTAMs
NOTAMs currently unavailable

Route map
Airport
Airport (hub)